Time;durP1;ratioP1;P1;durP2;ratioP2;P2;SDS_P1;SDS_P2;PMS_P1;PMS_P2;Temp;Humidity;BMP_temperature;BMP_pressure;BME280_temperature;BME280_humidity;BME280_pressure;Samples;Min_cycle;Max_cycle;Signal;HPM_P1;HPM_P2
2022/02/26 00:27:32;;;;;;;9.95;2.88;;;10.00;90.40;;;;;;5033975;28;20398;-62
2022/02/26 01:41:38;;;;;;;3.88;2.13;;;9.90;90.60;;;;;;5035390;28;20055;-61
2022/02/26 02:18:22;;;;;;;7.60;2.00;;;10.00;90.70;;;;;;5065711;28;20040;-61
2022/02/26 03:05:10;;;;;;;2.55;1.58;;;10.00;90.80;;;;;;5055490;28;20048;-61
2022/02/26 03:07:37;;;;;;;5.50;2.15;;;9.90;90.70;;;;;;5064861;28;20033;-61
2022/02/26 03:30:35;;;;;;;4.03;1.63;;;10.00;90.80;;;;;;5054017;28;20123;-61
2022/02/26 03:33:00;;;;;;;3.78;1.52;;;10.00;90.80;;;;;;5057878;28;20115;-61
2022/02/26 03:35:26;;;;;;;4.88;1.70;;;10.00;90.80;;;;;;5049701;28;20564;-61
2022/02/26 03:37:52;;;;;;;4.45;2.33;;;9.90;90.80;;;;;;5062398;28;20032;-61
2022/02/26 03:40:17;;;;;;;6.88;1.70;;;9.90;90.70;;;;;;5046412;28;20127;-62
2022/02/26 03:42:43;;;;;;;4.88;1.67;;;9.90;90.80;;;;;;5058519;28;20078;-61
2022/02/26 03:45:10;;;;;;;7.90;2.13;;;10.00;90.80;;;;;;5061179;28;20478;-61
2022/02/26 03:47:36;;;;;;;4.55;1.67;;;10.00;90.70;;;;;;5050264;28;20080;-61
2022/02/26 03:50:04;;;;;;;6.72;2.15;;;10.00;90.70;;;;;;5044422;28;20434;-61
2022/02/26 03:52:30;;;;;;;17.25;2.10;;;9.90;90.70;;;;;;5049401;28;20041;-61
2022/02/26 03:54:55;;;;;;;7.50;1.95;;;10.00;90.80;;;;;;5039219;28;20040;-61
2022/02/26 03:57:22;;;;;;;10.88;1.90;;;10.00;90.80;;;;;;5042974;28;20043;-61
2022/02/26 03:59:48;;;;;;;5.70;1.70;;;9.90;90.70;;;;;;5056635;28;20062;-61
2022/02/26 04:02:13;;;;;;;4.15;2.38;;;9.90;90.70;;;;;;5057641;28;20064;-61
2022/02/26 04:04:40;;;;;;;4.10;1.85;;;9.90;90.70;;;;;;5061913;28;20107;-61
2022/02/26 04:07:06;;;;;;;3.35;1.80;;;10.00;90.80;;;;;;5040476;28;20056;-61
2022/02/26 04:09:33;;;;;;;6.63;2.25;;;9.90;90.80;;;;;;5043797;28;20029;-61
2022/02/26 04:11:58;;;;;;;5.22;1.95;;;9.90;90.70;;;;;;5040329;28;20029;-61
2022/02/26 04:14:24;;;;;;;4.45;2.03;;;9.90;90.70;;;;;;5057832;28;20500;-61
2022/02/26 04:16:50;;;;;;;4.88;1.92;;;9.90;90.70;;;;;;5051396;28;20055;-61
2022/02/26 04:19:16;;;;;;;7.63;2.10;;;9.90;90.70;;;;;;5059389;28;20036;-61
2022/02/26 04:21:43;;;;;;;9.20;2.30;;;9.90;90.70;;;;;;5058681;28;20033;-61
2022/02/26 04:24:08;;;;;;;5.53;1.90;;;9.90;90.80;;;;;;5059189;28;20095;-61
2022/02/26 04:26:34;;;;;;;3.17;2.35;;;9.90;90.70;;;;;;5059360;28;20442;-61
2022/02/26 04:29:00;;;;;;;7.30;2.38;;;9.90;90.70;;;;;;5060786;28;20529;-61
2022/02/26 04:31:26;;;;;;;3.70;2.03;;;9.90;90.70;;;;;;5058960;28;20100;-61
2022/02/26 04:33:52;;;;;;;7.45;2.60;;;9.90;90.70;;;;;;5041077;28;20036;-61
2022/02/26 04:36:18;;;;;;;7.25;2.38;;;9.90;90.70;;;;;;5051196;28;20032;-61
2022/02/26 04:38:44;;;;;;;3.70;1.80;;;9.90;90.70;;;;;;5059478;28;20036;-61
2022/02/26 04:41:10;;;;;;;6.22;2.15;;;9.90;90.70;;;;;;5052588;28;20028;-61
2022/02/26 04:43:39;;;;;;;5.28;1.58;;;9.90;90.70;;;;;;5057909;28;20028;-61
2022/02/26 04:46:04;;;;;;;3.95;1.90;;;10.00;90.70;;;;;;5058017;28;20024;-61
2022/02/26 04:48:31;;;;;;;4.22;2.17;;;9.90;90.70;;;;;;5048491;28;20381;-61
2022/02/26 04:50:57;;;;;;;8.70;2.38;;;10.00;90.70;;;;;;5064973;28;20111;-61
2022/02/26 04:53:22;;;;;;;3.15;2.03;;;9.90;90.70;;;;;;5056723;28;20573;-61
2022/02/26 04:55:48;;;;;;;4.15;2.05;;;9.90;90.70;;;;;;5054589;28;20026;-61
2022/02/26 04:58:17;;;;;;;4.75;2.35;;;9.90;90.70;;;;;;5059713;28;20086;-61
2022/02/26 05:00:43;;;;;;;6.40;2.38;;;9.90;90.70;;;;;;5065818;28;20041;-61
2022/02/26 05:03:09;;;;;;;5.22;2.20;;;9.90;90.70;;;;;;5056852;28;20025;-61
2022/02/26 05:05:35;;;;;;;6.68;2.60;;;9.90;90.70;;;;;;5037467;28;20094;-61
2022/02/26 05:08:01;;;;;;;10.02;2.92;;;9.90;90.70;;;;;;5043052;28;20032;-61
2022/02/26 05:10:26;;;;;;;12.90;2.80;;;9.90;90.70;;;;;;5040890;28;20036;-62
2022/02/26 05:12:52;;;;;;;3.40;2.50;;;9.90;90.60;;;;;;5060725;28;20380;-61
2022/02/26 05:15:19;;;;;;;5.22;2.38;;;9.90;90.70;;;;;;5056569;28;20052;-62
2022/02/26 05:17:45;;;;;;;7.72;2.88;;;9.90;90.60;;;;;;5053724;28;20021;-61
2022/02/26 05:20:12;;;;;;;10.00;2.63;;;9.90;90.70;;;;;;5060348;28;20040;-61
2022/02/26 05:22:39;;;;;;;7.88;2.10;;;10.00;90.70;;;;;;5046078;28;20120;-61
2022/02/26 05:25:06;;;;;;;7.35;2.75;;;9.90;90.60;;;;;;5058336;28;20033;-61
2022/02/26 05:27:32;;;;;;;5.30;2.78;;;9.90;90.70;;;;;;5059096;28;20029;-61
2022/02/26 05:29:57;;;;;;;7.45;2.95;;;9.90;90.70;;;;;;5057029;28;20021;-61
2022/02/26 05:32:24;;;;;;;5.72;2.13;;;9.90;90.70;;;;;;5063134;28;20142;-61
2022/02/26 05:34:52;;;;;;;9.05;2.42;;;10.00;90.70;;;;;;5058570;28;20169;-61
2022/02/26 05:37:21;;;;;;;5.82;2.50;;;9.90;90.60;;;;;;5057349;28;20032;-62
2022/02/26 05:39:47;;;;;;;6.60;2.53;;;10.00;90.70;;;;;;5056767;28;20036;-61
2022/02/26 05:42:14;;;;;;;10.18;2.83;;;10.00;90.70;;;;;;5060713;28;20073;-62
2022/02/26 05:44:40;;;;;;;4.63;2.30;;;10.00;90.70;;;;;;5064532;28;20029;-61
2022/02/26 05:47:05;;;;;;;5.63;2.30;;;10.00;90.70;;;;;;5046240;28;20035;-61
2022/02/26 05:49:31;;;;;;;10.27;2.20;;;10.00;90.60;;;;;;5061490;28;20078;-61
2022/02/26 05:51:57;;;;;;;10.15;2.35;;;10.00;90.60;;;;;;5063902;28;20035;-61
2022/02/26 05:54:23;;;;;;;9.95;2.50;;;10.00;90.70;;;;;;5061135;28;20032;-61
2022/02/26 05:56:49;;;;;;;9.45;2.22;;;10.00;90.60;;;;;;5059816;28;20025;-61
2022/02/26 05:59:14;;;;;;;5.53;2.47;;;10.00;90.70;;;;;;5057707;28;20036;-61
2022/02/26 06:01:40;;;;;;;7.70;2.38;;;10.00;90.60;;;;;;5054422;28;20091;-62
2022/02/26 06:04:06;;;;;;;4.50;2.22;;;10.00;90.70;;;;;;5061886;28;20028;-61
2022/02/26 06:06:31;;;;;;;5.63;2.60;;;10.00;90.60;;;;;;5045139;28;20213;-62
2022/02/26 06:08:57;;;;;;;5.75;2.33;;;10.00;90.50;;;;;;5061567;28;20513;-62
2022/02/26 06:11:23;;;;;;;7.57;2.63;;;10.00;90.60;;;;;;5054397;28;20359;-62
2022/02/26 06:13:48;;;;;;;16.75;2.70;;;10.00;90.60;;;;;;5061951;28;20040;-62
2022/02/26 06:16:15;;;;;;;5.20;2.67;;;10.00;90.60;;;;;;5061824;28;20254;-62
2022/02/26 06:18:41;;;;;;;3.22;2.20;;;10.00;90.60;;;;;;5061123;28;20044;-62
2022/02/26 06:21:07;;;;;;;5.93;2.20;;;10.00;90.50;;;;;;5045126;28;20029;-62
2022/02/26 06:23:32;;;;;;;3.22;2.08;;;10.00;90.60;;;;;;5061611;28;20103;-62
2022/02/26 06:25:58;;;;;;;7.97;2.28;;;10.00;90.60;;;;;;5054187;28;20469;-62
2022/02/26 06:28:24;;;;;;;7.82;2.22;;;10.00;90.60;;;;;;5059716;28;20017;-62
2022/02/26 06:30:52;;;;;;;7.35;2.00;;;10.00;90.60;;;;;;5062634;28;20477;-62
2022/02/26 06:33:18;;;;;;;2.80;1.98;;;10.00;90.60;;;;;;5061057;28;20078;-62
2022/02/26 06:35:44;;;;;;;5.75;2.45;;;10.00;90.50;;;;;;5063834;28;20417;-62
2022/02/26 06:38:10;;;;;;;11.48;2.30;;;10.00;90.60;;;;;;5061893;28;20490;-62
2022/02/26 06:40:37;;;;;;;11.30;3.15;;;10.00;90.60;;;;;;5051204;28;20025;-62
2022/02/26 06:43:02;;;;;;;4.45;2.22;;;10.00;90.50;;;;;;5061541;28;20032;-62
2022/02/26 06:45:28;;;;;;;6.57;3.08;;;10.00;90.60;;;;;;5060962;28;20747;-62
2022/02/26 06:47:54;;;;;;;8.00;2.83;;;10.00;90.50;;;;;;5034589;28;20021;-62
2022/02/26 06:50:20;;;;;;;7.72;2.70;;;10.00;90.50;;;;;;5060511;28;20420;-62
2022/02/26 06:52:45;;;;;;;5.07;2.63;;;10.00;90.50;;;;;;5065492;28;20165;-62
2022/02/26 06:55:11;;;;;;;13.63;2.65;;;10.00;90.60;;;;;;5055361;28;20258;-62
2022/02/26 06:57:37;;;;;;;9.10;3.63;;;10.00;90.50;;;;;;5056760;28;20505;-62
2022/02/26 07:00:06;;;;;;;8.98;3.78;;;10.00;90.60;;;;;;5064160;28;20044;-62
2022/02/26 07:02:33;;;;;;;6.00;2.92;;;10.00;90.50;;;;;;5037710;28;20029;-62
2022/02/26 07:04:59;;;;;;;10.75;2.45;;;10.10;90.50;;;;;;5062173;28;20028;-62
2022/02/26 07:07:24;;;;;;;8.85;2.53;;;10.00;90.60;;;;;;5061290;28;20040;-62
2022/02/26 07:09:50;;;;;;;5.65;2.35;;;10.00;90.50;;;;;;5063985;28;20060;-62
2022/02/26 07:12:19;;;;;;;9.40;3.30;;;10.00;90.60;;;;;;5064278;28;20105;-62
2022/02/26 07:14:45;;;;;;;14.45;3.53;;;10.00;90.60;;;;;;5051259;28;20032;-62
2022/02/26 07:17:11;;;;;;;6.35;2.35;;;10.00;90.60;;;;;;5060343;28;20028;-62
2022/02/26 07:19:41;;;;;;;10.13;3.08;;;10.00;90.60;;;;;;5055550;28;20039;-62
2022/02/26 07:22:14;;;;;;;6.53;2.53;;;10.00;90.60;;;;;;5042660;28;20035;-62
2022/02/26 07:24:40;;;;;;;7.07;2.90;;;10.00;90.60;;;;;;5058964;28;20032;-62
2022/02/26 07:27:24;;;;;;;12.25;3.03;;;10.00;90.60;;;;;;5043817;28;20078;-62
2022/02/26 07:33:22;;;;;;;9.20;3.28;;;10.10;90.60;;;;;;5012807;28;20112;-62
2022/02/26 07:42:10;;;;;;;5.05;3.17;;;10.00;90.70;;;;;;5024249;28;20068;-62
2022/02/26 07:44:35;;;;;;;15.50;3.28;;;10.00;90.70;;;;;;5017208;28;20505;-61
2022/02/26 07:47:01;;;;;;;9.10;3.03;;;10.10;90.70;;;;;;5017509;28;20077;-62
2022/02/26 07:49:27;;;;;;;9.60;3.28;;;10.10;90.80;;;;;;5015839;28;20034;-62
2022/02/26 07:51:53;;;;;;;7.38;3.22;;;10.00;90.70;;;;;;5009698;28;20313;-62
2022/02/26 07:54:18;;;;;;;8.50;2.92;;;10.10;90.70;;;;;;5016028;28;20080;-62
2022/02/26 07:56:44;;;;;;;10.55;4.28;;;10.10;90.70;;;;;;4999765;28;20086;-62
2022/02/26 07:59:10;;;;;;;5.57;3.13;;;10.10;90.70;;;;;;4994442;28;20045;-62
2022/02/26 08:01:35;;;;;;;12.43;3.30;;;10.10;90.70;;;;;;5023319;28;20573;-62
2022/02/26 08:04:01;;;;;;;6.82;2.80;;;10.10;90.70;;;;;;5008391;28;20471;-62
2022/02/26 08:06:29;;;;;;;4.65;2.60;;;10.10;90.70;;;;;;5016195;28;20489;-62
2022/02/26 08:08:56;;;;;;;5.80;2.72;;;10.10;90.70;;;;;;5055397;28;20031;-62
2022/02/26 08:11:21;;;;;;;10.15;2.92;;;10.10;90.70;;;;;;5061379;28;20021;-62
2022/02/26 08:13:47;;;;;;;9.85;3.30;;;10.20;90.60;;;;;;5060219;28;20020;-62
2022/02/26 08:16:13;;;;;;;8.70;3.22;;;10.10;90.70;;;;;;5057882;28;20028;-62
2022/02/26 08:18:38;;;;;;;15.32;3.47;;;10.10;90.70;;;;;;5055808;28;20541;-62
2022/02/26 08:21:04;;;;;;;13.63;3.70;;;10.10;90.20;;;;;;5061236;28;20025;-63
2022/02/26 08:23:30;;;;;;;6.47;2.83;;;9.70;85.70;;;;;;5060074;28;20501;-63
2022/02/26 08:25:56;;;;;;;12.82;3.38;;;9.30;84.20;;;;;;5043409;28;20021;-63
2022/02/26 08:28:22;;;;;;;8.05;3.15;;;8.90;84.00;;;;;;5045373;28;20027;-63
2022/02/26 08:30:47;;;;;;;6.55;2.97;;;8.70;85.60;;;;;;5056534;28;20025;-62
2022/02/26 08:33:13;;;;;;;7.63;2.55;;;8.80;85.50;;;;;;5057862;28;20484;-62
2022/02/26 08:35:38;;;;;;;6.22;2.70;;;8.60;83.60;;;;;;5060018;28;20134;-63
2022/02/26 08:38:04;;;;;;;8.48;2.47;;;8.40;83.10;;;;;;5056531;28;20579;-62
2022/02/26 08:40:30;;;;;;;12.38;3.03;;;8.30;84.40;;;;;;5057517;28;20454;-63
2022/02/26 08:42:55;;;;;;;13.77;2.95;;;8.40;84.50;;;;;;5058469;28;20376;-62
2022/02/26 08:45:21;;;;;;;5.03;2.28;;;8.20;84.00;;;;;;5061214;28;20094;-63
2022/02/26 08:47:49;;;;;;;4.97;1.75;;;8.20;84.30;;;;;;5062443;28;20487;-62
2022/02/26 08:50:19;;;;;;;6.75;1.83;;;8.20;82.10;;;;;;5044587;28;20032;-63
2022/02/26 08:52:45;;;;;;;5.65;2.03;;;8.20;80.90;;;;;;5058300;28;20123;-63
2022/02/26 08:55:11;;;;;;;18.15;2.10;;;8.10;80.00;;;;;;5058503;28;20430;-63
2022/02/26 08:57:37;;;;;;;9.50;1.77;;;8.10;79.90;;;;;;5058065;28;20028;-62
2022/02/26 09:00:06;;;;;;;4.00;1.33;;;8.20;78.90;;;;;;5058979;28;20397;-63
2022/02/26 09:02:31;;;;;;;7.72;1.58;;;8.30;78.10;;;;;;5056428;28;20105;-62
2022/02/26 09:04:57;;;;;;;2.78;1.58;;;8.20;77.20;;;;;;5052431;28;20485;-63
2022/02/26 09:07:23;;;;;;;3.10;1.17;;;8.30;76.90;;;;;;5049636;28;20540;-63
2022/02/26 09:09:51;;;;;;;5.32;1.10;;;8.30;74.60;;;;;;5056351;28;20120;-63
2022/02/26 09:12:19;;;;;;;3.28;1.13;;;8.30;73.90;;;;;;5048376;28;20055;-63
2022/02/26 09:14:44;;;;;;;6.57;0.85;;;8.20;73.10;;;;;;5032776;28;20021;-63
2022/02/26 09:17:11;;;;;;;7.65;0.85;;;8.20;72.60;;;;;;5047275;28;20021;-63
2022/02/26 09:19:51;;;;;;;7.03;1.17;;;8.20;72.70;;;;;;5037583;28;20044;-63
2022/02/26 09:22:20;;;;;;;3.77;1.70;;;8.00;69.90;;;;;;5054943;28;20133;-63
2022/02/26 09:24:46;;;;;;;7.88;1.15;;;7.80;71.20;;;;;;5042671;28;20787;-64
2022/02/26 09:27:12;;;;;;;2.90;1.13;;;7.90;71.60;;;;;;5036425;28;20031;-63
2022/02/26 09:29:38;;;;;;;6.63;1.92;;;7.80;71.00;;;;;;5066477;28;20542;-61
2022/02/26 09:32:04;;;;;;;8.77;1.33;;;8.00;71.20;;;;;;5049871;28;20401;-61
2022/02/26 09:34:30;;;;;;;11.15;1.80;;;8.10;71.10;;;;;;5056722;28;20028;-61
2022/02/26 09:36:56;;;;;;;7.43;1.55;;;7.90;69.40;;;;;;5060143;28;20017;-61
2022/02/26 09:39:22;;;;;;;11.98;1.90;;;7.90;70.30;;;;;;5061923;28;20402;-61
2022/02/26 09:41:50;;;;;;;5.68;1.52;;;7.90;70.20;;;;;;5051499;28;20021;-63
2022/02/26 09:44:16;;;;;;;2.70;1.02;;;7.90;70.90;;;;;;5036868;28;20025;-64
2022/02/26 09:46:42;;;;;;;10.48;2.75;;;7.80;72.00;;;;;;5062485;28;20059;-63
2022/02/26 09:49:09;;;;;;;12.43;1.83;;;7.70;71.90;;;;;;5053455;28;20548;-63
2022/02/26 09:51:38;;;;;;;9.57;2.20;;;7.70;72.00;;;;;;5058403;28;20482;-64
2022/02/26 09:54:04;;;;;;;5.47;1.38;;;7.70;73.20;;;;;;5049688;28;20041;-64
2022/02/26 09:56:29;;;;;;;14.18;1.90;;;7.60;72.20;;;;;;5056273;28;20108;-64
2022/02/26 09:58:55;;;;;;;4.03;1.45;;;7.60;71.80;;;;;;5040324;28;20189;-64
2022/02/26 10:01:20;;;;;;;5.45;1.42;;;7.60;71.60;;;;;;5055473;28;20029;-61
2022/02/26 10:03:46;;;;;;;10.02;1.73;;;7.70;73.10;;;;;;5058243;28;20032;-61
2022/02/26 10:06:16;;;;;;;3.65;1.25;;;7.70;73.40;;;;;;5056532;28;20093;-61
2022/02/26 10:08:53;;;;;;;10.50;1.90;;;7.60;72.40;;;;;;5057593;28;20505;-61
2022/02/26 10:11:24;;;;;;;12.48;1.67;;;7.70;73.80;;;;;;5060074;28;20028;-62
2022/02/26 10:13:56;;;;;;;5.10;1.50;;;7.60;71.40;;;;;;5058547;28;20055;-61
2022/02/26 10:16:46;;;;;;;2.00;0.88;;;7.70;71.90;;;;;;5059179;28;20372;-61
2022/02/26 10:19:29;;;;;;;11.43;2.03;;;7.60;71.60;;;;;;5039151;28;20387;-61
2022/02/26 10:22:05;;;;;;;11.30;1.77;;;7.60;71.10;;;;;;5041662;28;20045;-62
2022/02/26 10:24:32;;;;;;;3.83;1.80;;;7.60;71.30;;;;;;5057311;28;20456;-61
2022/02/26 10:27:00;;;;;;;12.38;1.60;;;7.60;70.70;;;;;;5056295;28;20028;-62
2022/02/26 10:29:27;;;;;;;9.95;1.98;;;7.70;69.40;;;;;;5056263;28;20055;-61
2022/02/26 10:31:54;;;;;;;8.23;1.08;;;7.70;68.00;;;;;;5062326;28;20052;-61
2022/02/26 10:34:40;;;;;;;7.25;1.55;;;7.70;66.80;;;;;;5039974;28;20078;-62
2022/02/26 10:37:27;;;;;;;7.53;1.10;;;7.80;65.80;;;;;;5051476;28;20025;-61
2022/02/26 10:39:55;;;;;;;8.18;1.05;;;7.70;65.20;;;;;;5050935;28;20033;-61
2022/02/26 10:45:43;;;;;;;4.25;0.75;;;7.70;65.50;;;;;;5066750;28;20135;-64
2022/02/26 10:48:09;;;;;;;10.88;1.10;;;7.80;64.40;;;;;;5050682;28;20115;-61
2022/02/26 10:50:34;;;;;;;3.55;1.80;;;7.80;64.60;;;;;;5065265;28;20094;-61
2022/02/26 10:53:02;;;;;;;6.38;1.13;;;7.80;64.40;;;;;;5057846;28;20040;-61
2022/02/26 10:55:48;;;;;;;4.97;1.48;;;7.90;65.70;;;;;;5057628;28;20020;-61
2022/02/26 10:58:22;;;;;;;5.40;1.25;;;7.80;64.20;;;;;;5056540;28;20025;-61
2022/02/26 11:00:49;;;;;;;4.45;1.00;;;7.90;65.80;;;;;;5062151;28;20059;-60
2022/02/26 11:03:16;;;;;;;3.58;1.02;;;7.80;63.90;;;;;;5062007;28;20108;-61
2022/02/26 11:05:42;;;;;;;3.20;1.33;;;7.70;63.50;;;;;;5054046;28;20040;-62
2022/02/26 11:08:09;;;;;;;3.95;1.02;;;7.80;64.20;;;;;;5062711;28;20025;-61
2022/02/26 11:10:35;;;;;;;7.28;0.73;;;7.90;64.60;;;;;;5059188;28;20025;-61
2022/02/26 11:13:00;;;;;;;3.45;1.25;;;8.00;65.10;;;;;;5061130;28;20108;-61
2022/02/26 11:15:29;;;;;;;5.15;1.13;;;7.90;64.70;;;;;;5055537;28;20453;-61
2022/02/26 11:17:57;;;;;;;13.65;1.15;;;7.90;65.20;;;;;;5060566;28;20017;-61
2022/02/26 11:20:26;;;;;;;2.95;1.38;;;7.80;64.60;;;;;;5062257;28;20084;-61
2022/02/26 11:22:56;;;;;;;4.93;0.80;;;7.80;65.50;;;;;;5062036;28;20016;-63
2022/02/26 11:25:26;;;;;;;8.32;1.17;;;7.90;65.00;;;;;;5062716;28;20037;-64
2022/02/26 11:27:52;;;;;;;9.98;1.33;;;8.00;64.40;;;;;;5063490;28;20021;-63
2022/02/26 11:30:29;;;;;;;10.70;1.10;;;8.10;64.40;;;;;;5058503;28;20037;-64
2022/02/26 11:32:56;;;;;;;5.32;1.25;;;8.00;64.60;;;;;;5055891;28;20077;-63
2022/02/26 11:35:26;;;;;;;2.42;1.05;;;8.00;64.60;;;;;;5062974;28;20032;-63
2022/02/26 11:38:03;;;;;;;4.17;1.27;;;7.90;64.80;;;;;;5059354;28;20516;-61
2022/02/26 11:40:31;;;;;;;7.53;2.00;;;7.80;64.20;;;;;;5057517;28;20051;-60
2022/02/26 11:42:57;;;;;;;18.67;2.03;;;7.80;64.20;;;;;;5059937;28;20025;-61
2022/02/26 11:45:31;;;;;;;3.42;1.42;;;7.80;64.20;;;;;;5048159;28;20546;-60
2022/02/26 11:48:06;;;;;;;7.78;1.00;;;7.80;64.90;;;;;;5066361;28;20489;-60
2022/02/26 11:50:34;;;;;;;6.63;1.10;;;8.10;65.80;;;;;;5044205;28;20021;-60
2022/02/26 11:53:14;;;;;;;5.90;0.85;;;8.40;66.40;;;;;;5038484;28;20045;-60
2022/02/26 11:56:03;;;;;;;10.40;1.33;;;8.70;67.50;;;;;;5043458;28;20087;-60
2022/02/26 11:58:38;;;;;;;10.10;1.27;;;8.90;68.00;;;;;;5047216;28;20074;-60
2022/02/26 12:03:49;;;;;;;4.53;1.08;;;9.20;68.60;;;;;;5049527;23;20056;-60
2022/02/26 12:06:18;;;;;;;2.42;1.17;;;9.20;69.50;;;;;;5030167;28;20036;-60
2022/02/26 12:08:53;;;;;;;9.65;0.90;;;9.20;69.90;;;;;;5012171;28;20033;-60
2022/02/26 12:11:30;;;;;;;3.78;1.17;;;9.30;70.90;;;;;;5028794;28;20029;-60
2022/02/26 12:13:57;;;;;;;2.08;0.80;;;9.40;71.20;;;;;;5012879;28;20044;-60
2022/02/26 12:16:22;;;;;;;10.18;1.65;;;9.50;70.80;;;;;;5011680;28;20091;-60
2022/02/26 12:18:56;;;;;;;4.55;1.55;;;9.50;71.60;;;;;;5012624;28;20425;-60
2022/02/26 12:21:23;;;;;;;8.70;1.45;;;9.50;71.90;;;;;;5029117;28;20079;-60
2022/02/26 12:24:04;;;;;;;3.92;1.45;;;9.50;72.10;;;;;;5011984;28;20060;-61
2022/02/26 12:26:44;;;;;;;7.50;1.27;;;9.60;72.50;;;;;;5020427;28;20033;-60
2022/02/26 12:29:20;;;;;;;2.40;1.15;;;9.60;72.40;;;;;;5029386;28;20105;-60
2022/02/26 12:31:55;;;;;;;10.73;1.35;;;9.70;72.80;;;;;;5001714;28;20463;-60
2022/02/26 12:34:21;;;;;;;9.60;1.45;;;9.70;72.90;;;;;;5012213;28;20052;-60
2022/02/26 12:37:11;;;;;;;9.23;1.45;;;9.70;73.10;;;;;;5019111;28;20460;-60
2022/02/26 12:39:39;;;;;;;12.82;1.80;;;9.80;74.90;;;;;;5031713;28;20121;-60
2022/02/26 12:42:08;;;;;;;4.55;1.20;;;9.90;75.00;;;;;;5030516;28;20039;-60
2022/02/26 12:44:39;;;;;;;10.15;1.83;;;10.00;75.00;;;;;;5037802;28;20486;-60
2022/02/26 12:47:08;;;;;;;6.63;0.90;;;10.00;74.70;;;;;;5037097;28;20812;-60
2022/02/26 12:49:34;;;;;;;8.13;1.30;;;10.10;74.50;;;;;;5030112;28;20022;-60
2022/02/26 12:52:04;;;;;;;6.93;1.40;;;10.30;74.80;;;;;;5030941;28;20032;-60
2022/02/26 12:54:31;;;;;;;4.38;1.50;;;10.40;75.10;;;;;;5030475;28;20029;-60
2022/02/26 12:57:22;;;;;;;5.50;1.70;;;10.50;74.60;;;;;;5034593;28;20021;-60
2022/02/26 13:03:58;;;;;;;3.40;1.00;;;10.60;74.80;;;;;;5034008;28;20083;-60
2022/02/26 13:06:23;;;;;;;3.30;0.73;;;10.50;75.20;;;;;;5032089;28;20060;-60
2022/02/26 13:08:50;;;;;;;11.73;1.50;;;10.50;75.50;;;;;;5020798;28;20489;-60
2022/02/26 13:11:21;;;;;;;2.13;1.33;;;10.50;76.00;;;;;;5037144;28;20663;-60
2022/02/26 13:13:46;;;;;;;8.75;1.45;;;10.50;75.70;;;;;;5047235;28;20056;-60
2022/02/26 13:16:12;;;;;;;6.32;0.80;;;10.60;75.80;;;;;;5040829;28;20052;-60
2022/02/26 13:18:37;;;;;;;6.28;1.20;;;10.60;75.60;;;;;;5039450;28;20474;-60
2022/02/26 13:21:03;;;;;;;3.03;0.93;;;10.60;77.40;;;;;;5027080;28;20150;-60
2022/02/26 13:23:31;;;;;;;1.85;1.00;;;10.60;77.30;;;;;;5017904;28;20044;-60
2022/02/26 13:25:57;;;;;;;3.10;1.02;;;10.50;77.40;;;;;;5021980;28;20034;-60
2022/02/26 13:28:24;;;;;;;7.63;1.73;;;10.50;77.80;;;;;;5032760;28;20021;-63
2022/02/26 13:34:33;;;;;;;3.67;0.95;;;10.00;67.50;;;;;;5051571;28;20020;-61
2022/02/26 13:36:59;;;;;;;3.78;1.70;;;9.60;65.30;;;;;;5043979;28;20017;-61
2022/02/26 13:39:25;;;;;;;6.53;1.73;;;9.50;63.70;;;;;;5037110;28;20057;-61
2022/02/26 13:41:59;;;;;;;11.95;1.45;;;9.40;63.50;;;;;;5039062;28;20713;-61
2022/02/26 13:44:36;;;;;;;3.38;1.20;;;9.20;61.70;;;;;;5033961;28;20116;-61
2022/02/26 13:47:13;;;;;;;4.05;0.90;;;9.00;61.40;;;;;;5029467;28;20032;-61
2022/02/26 13:49:42;;;;;;;3.15;0.80;;;8.70;61.10;;;;;;5025720;28;20049;-61
2022/02/26 13:52:13;;;;;;;2.35;1.08;;;8.40;60.90;;;;;;5031713;28;20022;-63
2022/02/26 13:54:41;;;;;;;1.75;0.68;;;8.40;61.50;;;;;;5029056;28;20426;-63
2022/02/26 13:57:19;;;;;;;1.98;1.25;;;8.50;61.10;;;;;;5032458;28;20033;-63
2022/02/26 13:59:46;;;;;;;5.55;1.10;;;8.50;61.30;;;;;;5013924;28;20132;-63
2022/02/26 14:02:23;;;;;;;6.18;1.88;;;8.50;61.20;;;;;;5024305;28;20025;-63
2022/02/26 14:04:56;;;;;;;5.30;1.02;;;8.50;62.00;;;;;;5029929;28;20548;-63
2022/02/26 14:07:38;;;;;;;3.42;1.42;;;8.60;60.70;;;;;;5024791;28;20022;-64
2022/02/26 14:10:07;;;;;;;3.45;1.73;;;8.40;59.80;;;;;;5025765;28;20014;-63
2022/02/26 14:12:33;;;;;;;3.75;1.35;;;8.30;59.70;;;;;;5009708;28;20030;-63
2022/02/26 14:15:01;;;;;;;4.43;1.00;;;8.20;60.20;;;;;;5021314;28;20056;-63
2022/02/26 14:17:30;;;;;;;4.63;0.93;;;8.00;59.60;;;;;;5036528;28;20084;-63
2022/02/26 14:19:59;;;;;;;10.80;1.63;;;8.10;60.80;;;;;;5014504;28;20103;-63
2022/02/26 14:22:27;;;;;;;7.53;1.15;;;8.20;60.00;;;;;;5031051;28;20033;-63
2022/02/26 14:24:53;;;;;;;4.53;1.25;;;8.30;60.80;;;;;;5031586;28;20017;-63
2022/02/26 14:27:24;;;;;;;9.40;1.30;;;8.40;60.40;;;;;;5031174;28;20026;-64
2022/02/26 14:30:01;;;;;;;4.07;1.10;;;8.20;59.80;;;;;;5011954;28;20542;-63
2022/02/26 14:32:26;;;;;;;3.53;1.15;;;8.40;60.70;;;;;;5028569;28;20029;-63
2022/02/26 14:34:52;;;;;;;5.13;1.10;;;8.40;60.40;;;;;;5031496;28;20561;-63
2022/02/26 14:37:17;;;;;;;4.30;1.42;;;8.40;61.00;;;;;;5031932;28;20502;-61
2022/02/26 14:39:43;;;;;;;3.88;1.10;;;8.50;60.90;;;;;;5031368;28;20048;-61
2022/02/26 14:42:09;;;;;;;5.20;1.45;;;8.60;61.40;;;;;;5012807;28;20053;-61
2022/02/26 14:44:35;;;;;;;6.20;0.95;;;8.50;61.20;;;;;;5030670;28;20025;-61
2022/02/26 14:47:01;;;;;;;4.95;1.30;;;8.60;60.80;;;;;;5014273;28;20032;-61
2022/02/26 14:49:27;;;;;;;7.22;0.85;;;8.50;61.00;;;;;;5029989;28;20044;-61
2022/02/26 14:51:53;;;;;;;8.05;1.50;;;8.60;61.00;;;;;;5030591;28;20021;-61
2022/02/26 14:54:21;;;;;;;2.33;1.30;;;8.60;61.10;;;;;;5031247;28;20032;-61
2022/02/26 14:56:48;;;;;;;15.70;1.83;;;8.70;61.00;;;;;;5030193;28;20041;-61
2022/02/26 14:59:14;;;;;;;11.50;2.00;;;8.40;59.10;;;;;;5031556;28;20025;-61
2022/02/26 15:01:39;;;;;;;4.75;1.20;;;8.30;59.80;;;;;;5038144;28;20036;-61
2022/02/26 15:04:05;;;;;;;5.20;1.20;;;8.10;59.60;;;;;;5048947;28;20027;-61
2022/02/26 15:06:31;;;;;;;7.63;1.50;;;8.20;61.00;;;;;;5031679;28;20033;-61
2022/02/26 15:08:57;;;;;;;5.63;1.42;;;8.30;60.70;;;;;;5031418;28;20022;-61
2022/02/26 15:11:23;;;;;;;7.40;1.10;;;8.20;60.20;;;;;;5030536;28;20025;-61
2022/02/26 15:13:49;;;;;;;8.43;2.78;;;8.20;60.00;;;;;;5012774;28;20041;-61
2022/02/26 15:16:15;;;;;;;5.90;2.38;;;8.20;60.10;;;;;;5034193;28;20501;-61
2022/02/26 15:18:41;;;;;;;4.32;2.15;;;8.20;60.40;;;;;;5051289;28;20037;-61
2022/02/26 15:21:07;;;;;;;13.55;1.90;;;8.20;60.80;;;;;;5051248;28;20520;-61
2022/02/26 15:23:34;;;;;;;8.00;1.50;;;8.20;61.10;;;;;;5034158;28;20028;-63
2022/02/26 15:26:00;;;;;;;5.35;1.30;;;8.10;60.80;;;;;;5029684;28;21007;-61
2022/02/26 15:28:26;;;;;;;4.40;1.70;;;8.20;61.20;;;;;;5028805;28;20478;-60
2022/02/26 15:30:52;;;;;;;4.32;1.02;;;8.10;62.30;;;;;;5031498;28;20033;-60
2022/02/26 15:33:18;;;;;;;1.38;0.80;;;8.00;62.10;;;;;;5031098;28;20506;-60
2022/02/26 15:35:44;;;;;;;2.03;1.00;;;8.10;62.50;;;;;;5031480;28;20056;-62
2022/02/26 15:38:10;;;;;;;3.40;1.50;;;7.90;62.30;;;;;;5030918;28;20120;-62
2022/02/26 15:40:36;;;;;;;7.25;1.20;;;8.30;62.40;;;;;;5030877;28;20038;-60
2022/02/26 15:43:02;;;;;;;7.07;1.90;;;8.60;63.70;;;;;;5030776;28;20021;-60
2022/02/26 15:45:28;;;;;;;2.97;1.50;;;8.80;64.10;;;;;;5029945;28;20363;-60
2022/02/26 15:47:54;;;;;;;4.57;1.73;;;8.90;64.10;;;;;;5029579;28;20032;-60
2022/02/26 15:50:19;;;;;;;11.88;1.27;;;9.00;64.40;;;;;;5029026;28;20029;-62
2022/02/26 15:52:45;;;;;;;4.95;0.80;;;9.10;65.00;;;;;;5021341;28;20112;-61
2022/02/26 15:55:11;;;;;;;5.47;1.10;;;9.10;66.20;;;;;;5028868;28;20049;-61
2022/02/26 15:57:37;;;;;;;2.85;1.50;;;9.20;65.90;;;;;;5027788;28;20533;-61
2022/02/26 16:00:04;;;;;;;6.80;1.40;;;9.20;67.00;;;;;;5027829;28;20518;-61
2022/02/26 16:02:30;;;;;;;4.15;0.90;;;9.20;67.00;;;;;;5005881;28;20048;-60
2022/02/26 16:04:55;;;;;;;2.83;1.00;;;9.20;67.70;;;;;;5027537;28;20589;-61
2022/02/26 16:07:21;;;;;;;4.95;1.08;;;9.30;67.40;;;;;;5031081;28;20074;-62
2022/02/26 16:09:47;;;;;;;2.78;0.90;;;9.30;67.80;;;;;;5032096;28;20025;-61
2022/02/26 16:12:14;;;;;;;6.40;1.38;;;9.30;68.40;;;;;;5029669;28;20030;-61
2022/02/26 16:14:39;;;;;;;3.35;0.98;;;9.30;68.30;;;;;;5030596;28;20093;-61
2022/02/26 16:17:06;;;;;;;4.47;1.38;;;9.30;69.40;;;;;;5030181;28;20505;-60
2022/02/26 16:19:32;;;;;;;5.72;1.83;;;9.30;70.00;;;;;;5028103;28;20567;-61
2022/02/26 16:21:59;;;;;;;1.13;0.90;;;9.30;70.00;;;;;;5028742;28;20025;-61
2022/02/26 16:24:27;;;;;;;2.25;1.15;;;9.30;69.80;;;;;;5032357;28;20033;-61
2022/02/26 16:26:53;;;;;;;2.00;0.98;;;9.40;70.50;;;;;;5033218;28;20013;-61
2022/02/26 16:29:20;;;;;;;1.02;0.90;;;9.40;70.20;;;;;;5030730;28;20459;-61
2022/02/26 16:31:45;;;;;;;3.55;0.70;;;9.40;70.30;;;;;;5028295;28;20038;-61
2022/02/26 16:34:11;;;;;;;4.45;0.90;;;9.40;70.80;;;;;;5028936;28;20402;-61
2022/02/26 16:36:37;;;;;;;5.30;1.35;;;9.40;70.70;;;;;;5019263;28;20029;-60